createdAt,value
2022-09-10T00:02:47.153Z,100407.13
2022-09-10T00:07:48.910Z,100412.41
2022-09-10T00:12:50.785Z,100410.66
2022-09-10T00:17:52.459Z,100407.40
2022-09-10T00:22:54.234Z,100399.67
2022-09-10T00:27:56.108Z,100402.48
2022-09-10T00:32:57.885Z,100404.63
2022-09-10T00:37:59.863Z,100406.93
2022-09-10T00:43:01.748Z,100406.89
2022-09-10T00:48:31.007Z,100412.95
2022-09-10T00:53:33.346Z,100408.71
2022-09-10T00:58:35.249Z,100401.86
2022-09-10T01:03:38.429Z,100404.59
2022-09-10T01:08:40.230Z,100409.32
2022-09-10T01:13:49.453Z,100403.40
2022-09-10T01:18:57.066Z,100392.45
2022-09-10T01:24:17.475Z,100392.34
2022-09-10T01:29:35.532Z,100384.77
2022-09-10T01:34:47.035Z,100375.65
2022-09-10T01:39:51.285Z,100356.50
2022-09-10T01:44:54.573Z,100352.36
2022-09-10T01:50:05.874Z,100341.88
2022-09-10T01:55:26.899Z,100346.40
2022-09-10T02:00:28.880Z,100356.86
2022-09-10T02:05:34.816Z,100358.31
2022-09-10T02:10:49.735Z,100357.13
2022-09-10T02:15:52.838Z,100352.27
2022-09-10T02:20:57.594Z,100352.35
2022-09-10T02:25:59.359Z,100352.11
2022-09-10T02:31:01.438Z,100347.92
2022-09-10T02:36:03.521Z,100346.52
2022-09-10T02:41:05.293Z,100338.55
2022-09-10T02:46:07.068Z,100344.52
2022-09-10T02:51:08.845Z,100341.25
2022-09-10T02:56:10.628Z,100336.38
2022-09-10T03:01:15.335Z,100329.11
2022-09-10T03:06:17.443Z,100322.94
2022-09-10T03:11:22.492Z,100323.01
2022-09-10T03:16:24.640Z,100324.70
2022-09-10T03:21:26.450Z,100326.72
2022-09-10T03:26:28.328Z,100318.84
2022-09-10T03:31:30.641Z,100318.80
2022-09-10T03:36:32.391Z,100312.45
2022-09-10T03:41:34.675Z,100308.40
2022-09-10T03:46:37.781Z,100306.38
2022-09-10T03:51:39.553Z,100308.54
2022-09-10T03:56:41.636Z,100303.39
2022-09-10T04:01:43.821Z,100291.27
2022-09-10T04:06:45.594Z,100295.14
2022-09-10T04:11:47.370Z,100290.75
2022-09-10T04:16:49.712Z,100288.81
2022-09-10T04:21:52.555Z,100287.43
2022-09-10T04:26:54.331Z,100286.92
2022-09-10T04:31:58.006Z,100283.84
2022-09-10T04:37:00.950Z,100280.52
2022-09-10T04:42:03.032Z,100284.27
2022-09-10T04:47:05.831Z,100286.15
2022-09-10T04:52:07.604Z,100284.23
2022-09-10T04:57:09.487Z,100284.14
2022-09-10T05:02:12.405Z,100279.28
2022-09-10T05:07:14.059Z,100282.81
2022-09-10T05:12:16.242Z,100278.52
2022-09-10T05:17:19.761Z,100275.86
2022-09-10T05:22:21.529Z,100274.82
2022-09-10T05:27:23.306Z,100276.20
2022-09-10T05:32:25.384Z,100275.94
2022-09-10T05:37:27.668Z,100271.81
2022-09-10T05:42:30.685Z,100265.46
2022-09-10T05:47:32.856Z,100270.01
2022-09-10T05:52:34.735Z,100264.72
2022-09-10T05:57:37.044Z,100260.56
2022-09-10T06:02:39.101Z,100261.55
2022-09-10T06:07:41.083Z,100266.64
2022-09-10T06:12:47.054Z,100269.80
2022-09-10T06:17:49.647Z,100268.48
2022-09-10T06:22:51.832Z,100267.67
2022-09-10T06:27:54.424Z,100274.80
2022-09-10T06:32:56.410Z,100273.96
2022-09-10T06:37:58.797Z,100275.48
2022-09-10T06:43:03.948Z,100279.99
2022-09-10T06:53:34.341Z,100279.81
2022-09-10T06:58:39.541Z,100284.02
2022-09-10T07:03:43.410Z,100292.36
2022-09-10T07:08:46.143Z,100292.67
2022-09-10T07:13:53.608Z,100299.20
2022-09-10T07:18:59.449Z,100294.89
2022-09-10T07:24:03.197Z,100296.21
2022-09-10T07:29:05.596Z,100289.44
2022-09-10T07:34:08.491Z,100286.31
2022-09-10T07:39:10.697Z,100278.06
2022-09-10T07:44:13.371Z,100272.21
2022-09-10T07:49:16.268Z,100265.58
2022-09-10T07:54:19.074Z,100267.77
2022-09-10T07:59:20.948Z,100269.89
2022-09-10T08:04:23.135Z,100277.05
2022-09-10T08:09:25.113Z,100282.67
2022-09-10T08:14:26.927Z,100274.98
2022-09-10T08:19:29.684Z,100273.42
2022-09-10T08:24:31.451Z,100278.38
2022-09-10T08:29:34.662Z,100278.70
2022-09-10T08:34:36.641Z,100282.80
2022-09-10T08:39:38.440Z,100274.27
2022-09-10T08:44:58.211Z,100267.76
2022-09-10T08:50:13.263Z,100265.39
2022-09-10T08:55:17.733Z,100255.15
2022-09-10T09:00:33.232Z,100260.70
2022-09-10T09:05:44.741Z,100260.91
2022-09-10T09:10:50.192Z,100266.58
2022-09-10T09:16:24.736Z,100267.48
2022-09-10T09:21:55.490Z,100264.31
2022-09-10T09:27:09.345Z,100265.86
2022-09-10T09:32:15.641Z,100259.13
2022-09-10T09:37:22.214Z,100261.45
2022-09-10T09:42:32.896Z,100256.27
2022-09-10T09:47:34.876Z,100255.02
2022-09-10T09:52:38.082Z,100255.89
2022-09-10T09:57:42.215Z,100259.73
2022-09-10T10:02:44.195Z,100249.96
2022-09-10T10:07:48.324Z,100252.45
2022-09-10T10:12:52.860Z,100248.90
2022-09-10T10:17:54.940Z,100254.73
2022-09-10T10:22:59.686Z,100259.79
2022-09-10T10:28:02.283Z,100250.37
2022-09-10T10:33:04.363Z,100249.61
2022-09-10T10:38:18.229Z,100250.30
2022-09-10T10:43:47.025Z,100252.86
2022-09-10T10:49:26.382Z,100250.83
2022-09-10T10:54:37.064Z,100249.80
2022-09-10T11:00:08.704Z,100243.34
2022-09-10T11:05:44.511Z,100244.30
2022-09-10T11:10:56.834Z,100242.29
2022-09-10T11:16:14.797Z,100245.02
2022-09-10T11:21:36.630Z,100243.11
2022-09-10T11:27:18.450Z,100239.63
2022-09-10T11:32:47.148Z,100242.71
2022-09-10T11:37:50.561Z,100238.48
2022-09-10T11:42:59.195Z,100235.73
2022-09-10T11:48:11.008Z,100230.33
2022-09-10T11:53:19.437Z,100226.67
2022-09-10T11:58:58.076Z,100223.93
2022-09-10T12:04:14.595Z,100225.88
2022-09-10T12:09:35.212Z,100224.34
2022-09-10T12:14:40.491Z,100223.68
2022-09-10T12:19:53.298Z,100222.34
2022-09-10T12:25:03.781Z,100210.13
2022-09-10T12:30:32.891Z,100206.20
2022-09-10T12:35:34.900Z,100205.00
2022-09-10T12:40:36.646Z,100204.67
2022-09-10T12:46:02.370Z,100204.97
2022-09-10T12:51:16.863Z,100194.66
2022-09-10T12:56:53.242Z,100197.75
2022-09-10T13:01:56.516Z,100201.04
2022-09-10T13:07:24.856Z,100192.29
2022-09-10T13:12:27.848Z,100186.04
2022-09-10T13:17:36.992Z,100180.20
2022-09-10T13:23:09.900Z,100173.36
2022-09-10T13:28:30.212Z,100179.16
2022-09-10T13:33:39.600Z,100188.44
2022-09-10T13:38:44.111Z,100179.61
2022-09-10T13:44:24.991Z,100174.42
2022-09-10T13:49:41.932Z,100163.60
2022-09-10T13:54:51.273Z,100162.33
2022-09-10T14:00:07.693Z,100160.20
2022-09-10T14:05:47.873Z,100163.17
2022-09-10T14:10:55.894Z,100160.80
2022-09-10T14:16:01.251Z,100158.90
2022-09-10T14:21:05.701Z,100159.27
2022-09-10T14:26:14.008Z,100154.95
2022-09-10T14:31:26.924Z,100144.65
2022-09-10T14:36:33.359Z,100141.45
2022-09-10T14:41:36.334Z,100146.02
2022-09-10T14:46:48.959Z,100145.81
2022-09-10T14:51:50.835Z,100138.52
2022-09-10T14:56:55.625Z,100143.04
2022-09-10T15:02:00.729Z,100140.70
2022-09-10T15:07:04.580Z,100139.27
2022-09-10T15:12:13.298Z,100145.06
2022-09-10T15:17:20.105Z,100139.00
2022-09-10T15:22:24.639Z,100142.61
2022-09-10T15:27:27.217Z,100150.91
2022-09-10T15:32:31.361Z,100148.87
2022-09-10T15:37:34.863Z,100145.39
2022-09-10T15:42:36.949Z,100148.35
2022-09-10T15:47:40.563Z,100142.02
2022-09-10T15:52:44.602Z,100141.98
2022-09-10T15:57:50.864Z,100141.08
2022-09-10T16:02:54.671Z,100137.14
2022-09-10T16:07:57.619Z,100146.08
2022-09-10T16:13:01.003Z,100143.42
2022-09-10T16:18:03.597Z,100139.91
2022-09-10T16:23:05.787Z,100139.41
2022-09-10T16:28:07.756Z,100132.42
2022-09-10T16:33:10.895Z,100133.02
2022-09-10T16:38:13.989Z,100133.41
2022-09-10T16:43:16.258Z,100127.52
2022-09-10T16:48:18.136Z,100121.95
2022-09-10T16:53:21.000Z,100118.63
2022-09-10T16:58:23.935Z,100117.91
2022-09-10T17:03:29.503Z,100117.34
2022-09-10T17:08:34.127Z,100114.29
2022-09-10T17:13:37.552Z,100115.36
2022-09-10T17:18:39.447Z,100113.02
2022-09-10T17:23:41.620Z,100113.70
2022-09-10T17:28:43.902Z,100115.88
2022-09-10T17:33:46.621Z,100116.55
2022-09-10T17:38:49.405Z,100117.50
2022-09-10T17:43:52.296Z,100113.67
2022-09-10T17:48:54.890Z,100109.34
2022-09-10T17:53:58.425Z,100103.27
2022-09-10T17:59:03.209Z,100101.06
2022-09-10T18:04:07.482Z,100101.70
2022-09-10T18:09:10.902Z,100101.45
2022-09-10T18:14:18.284Z,100099.66
2022-09-10T18:19:20.072Z,100097.67
2022-09-10T18:24:24.112Z,100101.94
2022-09-10T18:29:29.432Z,100106.55
2022-09-10T18:34:35.028Z,100104.46
2022-09-10T18:39:45.789Z,100105.02
2022-09-10T18:44:48.880Z,100106.06
2022-09-10T18:49:51.666Z,100107.14
2022-09-10T18:54:57.965Z,100105.67
2022-09-10T19:00:00.476Z,100106.64
2022-09-10T19:05:11.664Z,100104.70
2022-09-10T19:10:18.439Z,100104.66
2022-09-10T19:15:27.184Z,100104.52
2022-09-10T19:20:32.225Z,100105.64
2022-09-10T19:25:35.472Z,100103.65
2022-09-10T19:30:40.344Z,100104.85
2022-09-10T19:35:45.061Z,100102.30
2022-09-10T19:40:48.486Z,100103.41
2022-09-10T19:45:56.984Z,100098.78
2022-09-10T19:51:03.305Z,100097.13
2022-09-10T19:56:11.141Z,100101.94
2022-09-10T20:01:16.220Z,100097.67
2022-09-10T20:06:22.985Z,100095.87
2022-09-10T20:11:31.052Z,100093.83
2022-09-10T20:16:39.899Z,100091.27
2022-09-10T20:21:43.326Z,100085.58
2022-09-10T20:26:49.295Z,100083.16
2022-09-10T20:31:52.798Z,100078.25
2022-09-10T20:36:54.980Z,100073.96
2022-09-10T20:41:58.291Z,100070.33
2022-09-10T20:47:00.374Z,100067.69
2022-09-10T20:52:04.791Z,100061.13
2022-09-10T20:57:07.129Z,100060.10
2022-09-10T21:02:10.946Z,100056.13
2022-09-10T21:07:12.909Z,100059.85
2022-09-10T21:12:15.605Z,100060.30
2022-09-10T21:17:17.470Z,100059.05
2022-09-10T21:22:19.963Z,100052.73
2022-09-10T21:27:23.693Z,100051.30
2022-09-10T21:32:26.172Z,100051.40
2022-09-10T21:37:28.461Z,100047.84
2022-09-10T21:42:30.238Z,100046.00
2022-09-10T21:47:33.467Z,100047.37
2022-09-10T21:52:35.216Z,100049.42
2022-09-10T21:57:37.207Z,100045.86
2022-09-10T22:02:39.830Z,100046.46
2022-09-10T22:07:41.771Z,100042.41
2022-09-10T22:12:44.029Z,100040.96
2022-09-10T22:17:46.034Z,100040.27
2022-09-10T22:22:48.836Z,100036.27
2022-09-10T22:27:50.714Z,100038.51
2022-09-10T22:32:57.502Z,100037.46
2022-09-10T22:37:59.480Z,100033.00
2022-09-10T22:43:01.775Z,100029.65
2022-09-10T22:48:04.568Z,100029.20
2022-09-10T22:53:06.650Z,100023.94
2022-09-10T22:58:09.743Z,100018.41
2022-09-10T23:03:11.378Z,100009.98
2022-09-10T23:08:14.018Z,100010.67
2022-09-10T23:13:16.022Z,99999.70
2022-09-10T23:18:18.722Z,99996.17
2022-09-10T23:23:20.783Z,99991.68
2022-09-10T23:28:28.710Z,99989.92
2022-09-10T23:33:30.892Z,99982.64
2022-09-10T23:38:35.925Z,99979.02
2022-09-10T23:43:39.358Z,99978.63
2022-09-10T23:48:42.753Z,99972.34
2022-09-10T23:53:45.858Z,99970.80
2022-09-10T23:58:48.559Z,99971.88
